sensor_id;sensor_type;location;lat;lon;timestamp;P1;durP1;ratioP1;P2;durP2;ratioP2
56868;SDS011;42754;0.000;0.000;2022-09-03T00:02:41;1.75;;;1.40;;
56868;SDS011;42754;0.000;0.000;2022-09-03T00:05:11;2.78;;;1.52;;
56868;SDS011;42754;0.000;0.000;2022-09-03T00:10:53;3.45;;;1.45;;
56868;SDS011;42754;0.000;0.000;2022-09-03T00:13:28;4.63;;;1.60;;
56868;SDS011;42754;0.000;0.000;2022-09-03T00:15:58;2.13;;;1.55;;
56868;SDS011;42754;0.000;0.000;2022-09-03T00:18:27;2.50;;;1.50;;
56868;SDS011;42754;0.000;0.000;2022-09-03T00:20:58;2.47;;;1.58;;
56868;SDS011;42754;0.000;0.000;2022-09-03T00:23:32;2.80;;;1.98;;
56868;SDS011;42754;0.000;0.000;2022-09-03T00:31:31;1.80;;;1.63;;
56868;SDS011;42754;0.000;0.000;2022-09-03T00:34:05;1.67;;;1.45;;
56868;SDS011;42754;0.000;0.000;2022-09-03T00:36:45;3.35;;;2.22;;
56868;SDS011;42754;0.000;0.000;2022-09-03T00:39:18;3.42;;;1.60;;
56868;SDS011;42754;0.000;0.000;2022-09-03T00:44:41;2.35;;;1.70;;
56868;SDS011;42754;0.000;0.000;2022-09-03T00:53:31;2.40;;;1.70;;
56868;SDS011;42754;0.000;0.000;2022-09-03T00:56:26;4.68;;;1.88;;
56868;SDS011;42754;0.000;0.000;2022-09-03T01:04:41;3.42;;;1.63;;
56868;SDS011;42754;0.000;0.000;2022-09-03T01:15:44;3.83;;;1.50;;
56868;SDS011;42754;0.000;0.000;2022-09-03T01:18:36;3.15;;;1.90;;
56868;SDS011;42754;0.000;0.000;2022-09-03T01:21:27;3.78;;;1.80;;
56868;SDS011;42754;0.000;0.000;2022-09-03T01:29:42;2.42;;;1.83;;
56868;SDS011;42754;0.000;0.000;2022-09-03T01:32:39;2.30;;;1.70;;
56868;SDS011;42754;0.000;0.000;2022-09-03T01:35:13;2.30;;;1.58;;
56868;SDS011;42754;0.000;0.000;2022-09-03T01:40:22;2.92;;;1.60;;
56868;SDS011;42754;0.000;0.000;2022-09-03T01:48:26;2.47;;;1.55;;
56868;SDS011;42754;0.000;0.000;2022-09-03T01:56:48;2.42;;;1.80;;
56868;SDS011;42754;0.000;0.000;2022-09-03T02:02:28;2.47;;;1.60;;
56868;SDS011;42754;0.000;0.000;2022-09-03T02:05:40;3.35;;;2.10;;
56868;SDS011;42754;0.000;0.000;2022-09-03T02:07:55;3.58;;;1.80;;
56868;SDS011;42754;0.000;0.000;2022-09-03T02:10:42;2.30;;;1.38;;
56868;SDS011;42754;0.000;0.000;2022-09-03T02:13:25;2.67;;;1.85;;
56868;SDS011;42754;0.000;0.000;2022-09-03T02:15:56;3.85;;;1.88;;
56868;SDS011;42754;0.000;0.000;2022-09-03T02:18:35;1.50;;;1.40;;
56868;SDS011;42754;0.000;0.000;2022-09-03T02:21:05;3.22;;;1.88;;
56868;SDS011;42754;0.000;0.000;2022-09-03T02:23:31;2.53;;;2.13;;
56868;SDS011;42754;0.000;0.000;2022-09-03T02:25:59;3.30;;;1.73;;
56868;SDS011;42754;0.000;0.000;2022-09-03T02:28:26;2.20;;;1.65;;
56868;SDS011;42754;0.000;0.000;2022-09-03T02:30:53;3.33;;;1.60;;
56868;SDS011;42754;0.000;0.000;2022-09-03T02:33:19;4.55;;;1.90;;
56868;SDS011;42754;0.000;0.000;2022-09-03T02:35:45;3.55;;;1.85;;
56868;SDS011;42754;0.000;0.000;2022-09-03T02:38:15;3.50;;;1.73;;
56868;SDS011;42754;0.000;0.000;2022-09-03T02:40:43;2.05;;;1.60;;
56868;SDS011;42754;0.000;0.000;2022-09-03T02:43:11;5.00;;;1.60;;
56868;SDS011;42754;0.000;0.000;2022-09-03T02:48:28;3.90;;;1.90;;
56868;SDS011;42754;0.000;0.000;2022-09-03T02:50:54;2.38;;;1.83;;
56868;SDS011;42754;0.000;0.000;2022-09-03T02:53:20;3.67;;;1.88;;
56868;SDS011;42754;0.000;0.000;2022-09-03T02:55:45;1.83;;;1.67;;
56868;SDS011;42754;0.000;0.000;2022-09-03T02:58:11;4.97;;;1.70;;
56868;SDS011;42754;0.000;0.000;2022-09-03T03:00:37;1.70;;;1.60;;
56868;SDS011;42754;0.000;0.000;2022-09-03T03:03:03;2.97;;;1.65;;
56868;SDS011;42754;0.000;0.000;2022-09-03T03:05:49;2.40;;;1.80;;
56868;SDS011;42754;0.000;0.000;2022-09-03T03:08:20;2.10;;;1.80;;
56868;SDS011;42754;0.000;0.000;2022-09-03T03:10:50;2.13;;;1.60;;
56868;SDS011;42754;0.000;0.000;2022-09-03T03:13:17;2.78;;;1.50;;
56868;SDS011;42754;0.000;0.000;2022-09-03T03:15:42;5.63;;;1.90;;
56868;SDS011;42754;0.000;0.000;2022-09-03T03:18:09;1.60;;;1.50;;
56868;SDS011;42754;0.000;0.000;2022-09-03T03:20:38;2.70;;;1.70;;
56868;SDS011;42754;0.000;0.000;2022-09-03T03:23:05;3.80;;;1.52;;
56868;SDS011;42754;0.000;0.000;2022-09-03T03:25:32;3.20;;;1.75;;
56868;SDS011;42754;0.000;0.000;2022-09-03T03:28:02;2.50;;;1.60;;
56868;SDS011;42754;0.000;0.000;2022-09-03T03:30:29;2.67;;;1.38;;
56868;SDS011;42754;0.000;0.000;2022-09-03T03:32:54;3.15;;;2.13;;
56868;SDS011;42754;0.000;0.000;2022-09-03T03:35:20;2.72;;;1.83;;
56868;SDS011;42754;0.000;0.000;2022-09-03T03:37:46;3.72;;;1.70;;
56868;SDS011;42754;0.000;0.000;2022-09-03T03:40:12;1.40;;;1.30;;
56868;SDS011;42754;0.000;0.000;2022-09-03T03:42:39;3.78;;;2.17;;
56868;SDS011;42754;0.000;0.000;2022-09-03T03:45:05;2.45;;;1.60;;
56868;SDS011;42754;0.000;0.000;2022-09-03T03:47:32;2.72;;;1.40;;
56868;SDS011;42754;0.000;0.000;2022-09-03T03:49:58;2.97;;;1.70;;
56868;SDS011;42754;0.000;0.000;2022-09-03T03:52:24;3.45;;;1.60;;
56868;SDS011;42754;0.000;0.000;2022-09-03T03:54:51;3.10;;;1.80;;
56868;SDS011;42754;0.000;0.000;2022-09-03T03:57:17;3.63;;;1.65;;
56868;SDS011;42754;0.000;0.000;2022-09-03T03:59:44;2.47;;;2.28;;
56868;SDS011;42754;0.000;0.000;2022-09-03T04:02:11;4.45;;;1.75;;
56868;SDS011;42754;0.000;0.000;2022-09-03T04:04:38;2.03;;;1.70;;
56868;SDS011;42754;0.000;0.000;2022-09-03T04:07:03;2.15;;;1.77;;
56868;SDS011;42754;0.000;0.000;2022-09-03T04:09:29;3.25;;;1.88;;
56868;SDS011;42754;0.000;0.000;2022-09-03T04:11:55;4.20;;;1.80;;
56868;SDS011;42754;0.000;0.000;2022-09-03T04:14:22;5.05;;;1.90;;
56868;SDS011;42754;0.000;0.000;2022-09-03T04:16:48;1.80;;;1.67;;
56868;SDS011;42754;0.000;0.000;2022-09-03T04:19:14;1.80;;;1.60;;
56868;SDS011;42754;0.000;0.000;2022-09-03T04:21:41;3.33;;;1.98;;
56868;SDS011;42754;0.000;0.000;2022-09-03T04:24:07;1.80;;;1.70;;
56868;SDS011;42754;0.000;0.000;2022-09-03T04:26:32;2.95;;;2.08;;
56868;SDS011;42754;0.000;0.000;2022-09-03T04:28:59;4.25;;;1.77;;
56868;SDS011;42754;0.000;0.000;2022-09-03T04:31:26;4.55;;;1.50;;
56868;SDS011;42754;0.000;0.000;2022-09-03T04:33:52;2.03;;;1.75;;
56868;SDS011;42754;0.000;0.000;2022-09-03T04:36:20;1.90;;;1.38;;
56868;SDS011;42754;0.000;0.000;2022-09-03T04:38:47;4.43;;;1.75;;
56868;SDS011;42754;0.000;0.000;2022-09-03T04:41:16;4.03;;;1.98;;
56868;SDS011;42754;0.000;0.000;2022-09-03T04:43:42;2.40;;;1.80;;
56868;SDS011;42754;0.000;0.000;2022-09-03T04:46:09;1.77;;;1.63;;
56868;SDS011;42754;0.000;0.000;2022-09-03T04:48:37;3.45;;;1.60;;
56868;SDS011;42754;0.000;0.000;2022-09-03T04:51:11;4.70;;;2.00;;
56868;SDS011;42754;0.000;0.000;2022-09-03T04:53:39;1.83;;;1.65;;
56868;SDS011;42754;0.000;0.000;2022-09-03T04:56:13;2.85;;;1.75;;
56868;SDS011;42754;0.000;0.000;2022-09-03T04:58:41;3.03;;;1.98;;
56868;SDS011;42754;0.000;0.000;2022-09-03T05:01:08;3.30;;;1.67;;
56868;SDS011;42754;0.000;0.000;2022-09-03T05:03:35;2.33;;;1.77;;
56868;SDS011;42754;0.000;0.000;2022-09-03T05:06:03;7.22;;;1.70;;
56868;SDS011;42754;0.000;0.000;2022-09-03T05:08:30;2.10;;;1.90;;
56868;SDS011;42754;0.000;0.000;2022-09-03T05:11:00;2.33;;;1.50;;
56868;SDS011;42754;0.000;0.000;2022-09-03T05:13:26;2.00;;;1.60;;
56868;SDS011;42754;0.000;0.000;2022-09-03T05:15:52;2.47;;;1.60;;
56868;SDS011;42754;0.000;0.000;2022-09-03T05:18:23;3.03;;;1.70;;
56868;SDS011;42754;0.000;0.000;2022-09-03T05:20:56;3.20;;;1.90;;
56868;SDS011;42754;0.000;0.000;2022-09-03T05:23:26;2.75;;;1.73;;
56868;SDS011;42754;0.000;0.000;2022-09-03T05:25:59;2.08;;;1.60;;
56868;SDS011;42754;0.000;0.000;2022-09-03T05:28:26;2.83;;;2.08;;
56868;SDS011;42754;0.000;0.000;2022-09-03T05:31:13;3.55;;;1.67;;
56868;SDS011;42754;0.000;0.000;2022-09-03T05:33:45;2.38;;;1.90;;
56868;SDS011;42754;0.000;0.000;2022-09-03T05:36:13;1.83;;;1.60;;
56868;SDS011;42754;0.000;0.000;2022-09-03T05:38:41;3.92;;;1.83;;
56868;SDS011;42754;0.000;0.000;2022-09-03T05:41:08;5.10;;;1.77;;
56868;SDS011;42754;0.000;0.000;2022-09-03T05:43:35;2.20;;;1.70;;
56868;SDS011;42754;0.000;0.000;2022-09-03T05:46:08;8.77;;;1.85;;
56868;SDS011;42754;0.000;0.000;2022-09-03T05:48:36;2.03;;;1.58;;
56868;SDS011;42754;0.000;0.000;2022-09-03T05:51:03;2.20;;;1.70;;
56868;SDS011;42754;0.000;0.000;2022-09-03T05:53:32;1.92;;;1.40;;
56868;SDS011;42754;0.000;0.000;2022-09-03T05:56:00;2.22;;;1.60;;
56868;SDS011;42754;0.000;0.000;2022-09-03T05:58:31;3.10;;;1.73;;
56868;SDS011;42754;0.000;0.000;2022-09-03T06:00:58;3.00;;;1.40;;
56868;SDS011;42754;0.000;0.000;2022-09-03T06:03:24;1.98;;;1.30;;
56868;SDS011;42754;0.000;0.000;2022-09-03T06:05:53;3.08;;;1.40;;
56868;SDS011;42754;0.000;0.000;2022-09-03T06:08:20;3.17;;;1.33;;
56868;SDS011;42754;0.000;0.000;2022-09-03T06:10:46;3.22;;;1.27;;
56868;SDS011;42754;0.000;0.000;2022-09-03T06:13:12;7.10;;;1.65;;
56868;SDS011;42754;0.000;0.000;2022-09-03T06:15:37;3.38;;;1.52;;
56868;SDS011;42754;0.000;0.000;2022-09-03T06:18:03;4.18;;;1.38;;
56868;SDS011;42754;0.000;0.000;2022-09-03T06:20:29;1.60;;;1.15;;
56868;SDS011;42754;0.000;0.000;2022-09-03T06:22:56;1.42;;;1.20;;
56868;SDS011;42754;0.000;0.000;2022-09-03T06:25:21;1.45;;;1.35;;
56868;SDS011;42754;0.000;0.000;2022-09-03T06:27:47;1.08;;;0.98;;
56868;SDS011;42754;0.000;0.000;2022-09-03T06:30:13;5.07;;;1.38;;
56868;SDS011;42754;0.000;0.000;2022-09-03T06:32:44;1.75;;;1.45;;
56868;SDS011;42754;0.000;0.000;2022-09-03T06:35:10;1.67;;;1.50;;
56868;SDS011;42754;0.000;0.000;2022-09-03T06:37:39;2.70;;;1.50;;
56868;SDS011;42754;0.000;0.000;2022-09-03T06:40:06;5.90;;;1.35;;
56868;SDS011;42754;0.000;0.000;2022-09-03T06:42:36;3.28;;;1.65;;
56868;SDS011;42754;0.000;0.000;2022-09-03T06:45:03;3.78;;;1.23;;
56868;SDS011;42754;0.000;0.000;2022-09-03T06:47:30;3.55;;;1.58;;
56868;SDS011;42754;0.000;0.000;2022-09-03T06:49:57;2.90;;;1.48;;
56868;SDS011;42754;0.000;0.000;2022-09-03T06:52:24;2.42;;;1.15;;
56868;SDS011;42754;0.000;0.000;2022-09-03T06:54:49;5.07;;;1.20;;
56868;SDS011;42754;0.000;0.000;2022-09-03T06:57:15;6.18;;;1.38;;
56868;SDS011;42754;0.000;0.000;2022-09-03T06:59:41;1.45;;;1.20;;
56868;SDS011;42754;0.000;0.000;2022-09-03T07:02:07;1.80;;;1.52;;
56868;SDS011;42754;0.000;0.000;2022-09-03T07:04:33;5.47;;;1.58;;
56868;SDS011;42754;0.000;0.000;2022-09-03T07:06:59;4.07;;;1.27;;
56868;SDS011;42754;0.000;0.000;2022-09-03T07:09:25;3.67;;;1.40;;
56868;SDS011;42754;0.000;0.000;2022-09-03T07:11:50;3.50;;;1.40;;
56868;SDS011;42754;0.000;0.000;2022-09-03T07:14:17;3.20;;;1.50;;
56868;SDS011;42754;0.000;0.000;2022-09-03T07:16:43;4.70;;;1.60;;
56868;SDS011;42754;0.000;0.000;2022-09-03T07:19:10;6.30;;;2.85;;
56868;SDS011;42754;0.000;0.000;2022-09-03T07:21:37;2.00;;;1.00;;
56868;SDS011;42754;0.000;0.000;2022-09-03T07:24:05;2.05;;;1.25;;
56868;SDS011;42754;0.000;0.000;2022-09-03T07:26:41;3.92;;;1.33;;
56868;SDS011;42754;0.000;0.000;2022-09-03T07:29:13;1.20;;;1.10;;
56868;SDS011;42754;0.000;0.000;2022-09-03T07:31:40;3.63;;;1.60;;
56868;SDS011;42754;0.000;0.000;2022-09-03T07:34:08;1.73;;;1.23;;
56868;SDS011;42754;0.000;0.000;2022-09-03T07:36:37;4.00;;;1.25;;
56868;SDS011;42754;0.000;0.000;2022-09-03T07:39:06;2.75;;;1.73;;
56868;SDS011;42754;0.000;0.000;2022-09-03T07:41:33;6.15;;;1.38;;
56868;SDS011;42754;0.000;0.000;2022-09-03T07:43:59;3.63;;;1.30;;
56868;SDS011;42754;0.000;0.000;2022-09-03T07:46:29;2.80;;;1.73;;
56868;SDS011;42754;0.000;0.000;2022-09-03T07:48:57;1.77;;;1.35;;
56868;SDS011;42754;0.000;0.000;2022-09-03T07:51:26;2.25;;;1.30;;
56868;SDS011;42754;0.000;0.000;2022-09-03T07:53:55;2.13;;;1.30;;
56868;SDS011;42754;0.000;0.000;2022-09-03T07:56:22;9.57;;;2.00;;
56868;SDS011;42754;0.000;0.000;2022-09-03T07:58:48;2.15;;;1.00;;
56868;SDS011;42754;0.000;0.000;2022-09-03T08:01:15;4.88;;;1.60;;
56868;SDS011;42754;0.000;0.000;2022-09-03T08:03:48;2.78;;;1.42;;
56868;SDS011;42754;0.000;0.000;2022-09-03T08:08:43;1.77;;;1.33;;
56868;SDS011;42754;0.000;0.000;2022-09-03T08:11:10;1.98;;;1.20;;
56868;SDS011;42754;0.000;0.000;2022-09-03T08:13:41;5.63;;;1.30;;
56868;SDS011;42754;0.000;0.000;2022-09-03T08:16:18;4.03;;;1.50;;
56868;SDS011;42754;0.000;0.000;2022-09-03T08:18:44;1.30;;;1.10;;
56868;SDS011;42754;0.000;0.000;2022-09-03T08:21:13;3.65;;;1.30;;
56868;SDS011;42754;0.000;0.000;2022-09-03T08:23:41;2.10;;;1.20;;
56868;SDS011;42754;0.000;0.000;2022-09-03T08:26:08;4.25;;;1.13;;
56868;SDS011;42754;0.000;0.000;2022-09-03T08:28:34;5.03;;;1.10;;
56868;SDS011;42754;0.000;0.000;2022-09-03T08:31:15;2.97;;;1.00;;
56868;SDS011;42754;0.000;0.000;2022-09-03T08:33:46;2.58;;;1.17;;
56868;SDS011;42754;0.000;0.000;2022-09-03T08:36:15;1.80;;;1.17;;
56868;SDS011;42754;0.000;0.000;2022-09-03T08:38:44;2.45;;;1.13;;
56868;SDS011;42754;0.000;0.000;2022-09-03T08:41:11;10.60;;;1.10;;
56868;SDS011;42754;0.000;0.000;2022-09-03T08:43:45;7.43;;;1.38;;
56868;SDS011;42754;0.000;0.000;2022-09-03T08:46:18;5.47;;;1.20;;
56868;SDS011;42754;0.000;0.000;2022-09-03T08:48:48;5.35;;;1.00;;
56868;SDS011;42754;0.000;0.000;2022-09-03T08:51:13;7.97;;;1.30;;
56868;SDS011;42754;0.000;0.000;2022-09-03T08:53:44;6.10;;;1.15;;
56868;SDS011;42754;0.000;0.000;2022-09-03T08:56:17;10.50;;;1.25;;
56868;SDS011;42754;0.000;0.000;2022-09-03T08:58:49;1.88;;;1.00;;
56868;SDS011;42754;0.000;0.000;2022-09-03T09:01:25;2.47;;;1.05;;
56868;SDS011;42754;0.000;0.000;2022-09-03T09:07:03;1.90;;;1.00;;
56868;SDS011;42754;0.000;0.000;2022-09-03T09:15:23;1.77;;;1.00;;
56868;SDS011;42754;0.000;0.000;2022-09-03T09:18:17;4.95;;;1.15;;
56868;SDS011;42754;0.000;0.000;2022-09-03T09:20:51;1.45;;;0.80;;
56868;SDS011;42754;0.000;0.000;2022-09-03T09:23:43;2.03;;;1.05;;
56868;SDS011;42754;0.000;0.000;2022-09-03T09:26:12;1.40;;;0.90;;
56868;SDS011;42754;0.000;0.000;2022-09-03T09:28:40;0.95;;;0.70;;
56868;SDS011;42754;0.000;0.000;2022-09-03T09:31:09;1.58;;;1.00;;
56868;SDS011;42754;0.000;0.000;2022-09-03T09:33:39;2.00;;;0.88;;
56868;SDS011;42754;0.000;0.000;2022-09-03T09:36:07;2.03;;;1.00;;
56868;SDS011;42754;0.000;0.000;2022-09-03T09:38:37;1.83;;;0.90;;
56868;SDS011;42754;0.000;0.000;2022-09-03T09:41:10;4.43;;;0.90;;
56868;SDS011;42754;0.000;0.000;2022-09-03T09:43:38;1.35;;;0.88;;
56868;SDS011;42754;0.000;0.000;2022-09-03T09:46:05;3.97;;;0.85;;
56868;SDS011;42754;0.000;0.000;2022-09-03T09:48:36;4.30;;;1.08;;
56868;SDS011;42754;0.000;0.000;2022-09-03T09:53:32;4.03;;;1.02;;
56868;SDS011;42754;0.000;0.000;2022-09-03T09:55:59;0.80;;;0.80;;
56868;SDS011;42754;0.000;0.000;2022-09-03T09:58:27;1.85;;;0.90;;
56868;SDS011;42754;0.000;0.000;2022-09-03T10:01:02;1.63;;;0.93;;
56868;SDS011;42754;0.000;0.000;2022-09-03T10:03:52;1.65;;;1.10;;
56868;SDS011;42754;0.000;0.000;2022-09-03T10:06:24;8.85;;;1.10;;
56868;SDS011;42754;0.000;0.000;2022-09-03T10:09:17;3.30;;;1.02;;
56868;SDS011;42754;0.000;0.000;2022-09-03T10:11:44;4.88;;;0.82;;
56868;SDS011;42754;0.000;0.000;2022-09-03T10:17:00;2.95;;;1.15;;
56868;SDS011;42754;0.000;0.000;2022-09-03T10:23:02;2.05;;;1.15;;
56868;SDS011;42754;0.000;0.000;2022-09-03T10:25:50;3.35;;;0.93;;
56868;SDS011;42754;0.000;0.000;2022-09-03T10:28:31;9.98;;;1.35;;
56868;SDS011;42754;0.000;0.000;2022-09-03T10:34:05;4.00;;;0.80;;
56868;SDS011;42754;0.000;0.000;2022-09-03T10:44:59;8.82;;;1.27;;
56868;SDS011;42754;0.000;0.000;2022-09-03T10:47:59;3.00;;;0.98;;
56868;SDS011;42754;0.000;0.000;2022-09-03T10:53:29;2.03;;;1.17;;
56868;SDS011;42754;0.000;0.000;2022-09-03T10:56:29;2.50;;;0.90;;
56868;SDS011;42754;0.000;0.000;2022-09-03T11:04:39;5.50;;;0.80;;
56868;SDS011;42754;0.000;0.000;2022-09-03T11:07:28;1.40;;;0.80;;
56868;SDS011;42754;0.000;0.000;2022-09-03T11:10:17;3.50;;;0.90;;
56868;SDS011;42754;0.000;0.000;2022-09-03T11:18:27;3.88;;;1.00;;
56868;SDS011;42754;0.000;0.000;2022-09-03T11:20:55;3.03;;;1.00;;
56868;SDS011;42754;0.000;0.000;2022-09-03T11:23:25;1.77;;;0.98;;
56868;SDS011;42754;0.000;0.000;2022-09-03T11:25:56;4.50;;;0.95;;
56868;SDS011;42754;0.000;0.000;2022-09-03T11:31:21;1.75;;;0.75;;
56868;SDS011;42754;0.000;0.000;2022-09-03T11:36:50;1.90;;;0.90;;
56868;SDS011;42754;0.000;0.000;2022-09-03T11:42:00;1.25;;;0.90;;
56868;SDS011;42754;0.000;0.000;2022-09-03T11:47:20;1.38;;;1.10;;
56868;SDS011;42754;0.000;0.000;2022-09-03T11:49:49;2.53;;;1.08;;
56868;SDS011;42754;0.000;0.000;2022-09-03T11:52:29;1.08;;;0.80;;
56868;SDS011;42754;0.000;0.000;2022-09-03T11:55:05;2.42;;;1.00;;
56868;SDS011;42754;0.000;0.000;2022-09-03T11:57:31;3.47;;;1.00;;
56868;SDS011;42754;0.000;0.000;2022-09-03T12:00:13;3.55;;;1.00;;
56868;SDS011;42754;0.000;0.000;2022-09-03T12:02:59;7.30;;;1.23;;
56868;SDS011;42754;0.000;0.000;2022-09-03T12:22:15;4.88;;;1.25;;
56868;SDS011;42754;0.000;0.000;2022-09-03T12:24:42;2.25;;;1.10;;
56868;SDS011;42754;0.000;0.000;2022-09-03T12:27:13;5.93;;;1.15;;
56868;SDS011;42754;0.000;0.000;2022-09-03T12:29:55;1.30;;;1.13;;
56868;SDS011;42754;0.000;0.000;2022-09-03T12:32:24;3.80;;;1.20;;
56868;SDS011;42754;0.000;0.000;2022-09-03T12:34:56;4.55;;;0.95;;
56868;SDS011;42754;0.000;0.000;2022-09-03T12:37:23;3.28;;;0.98;;
56868;SDS011;42754;0.000;0.000;2022-09-03T12:39:51;4.03;;;1.10;;
56868;SDS011;42754;0.000;0.000;2022-09-03T12:42:22;1.77;;;1.00;;
56868;SDS011;42754;0.000;0.000;2022-09-03T12:44:52;3.50;;;0.80;;
56868;SDS011;42754;0.000;0.000;2022-09-03T12:47:19;2.75;;;1.08;;
56868;SDS011;42754;0.000;0.000;2022-09-03T12:49:49;6.57;;;1.30;;
56868;SDS011;42754;0.000;0.000;2022-09-03T12:52:20;3.17;;;1.27;;
56868;SDS011;42754;0.000;0.000;2022-09-03T12:57:41;2.97;;;1.27;;
56868;SDS011;42754;0.000;0.000;2022-09-03T13:00:15;2.70;;;1.40;;
56868;SDS011;42754;0.000;0.000;2022-09-03T13:13:01;2.17;;;1.30;;
56868;SDS011;42754;0.000;0.000;2022-09-03T13:15:31;3.85;;;1.40;;
56868;SDS011;42754;0.000;0.000;2022-09-03T13:29:18;2.63;;;1.30;;
56868;SDS011;42754;0.000;0.000;2022-09-03T13:35:07;2.15;;;1.50;;
56868;SDS011;42754;0.000;0.000;2022-09-03T13:40:57;2.03;;;1.52;;
56868;SDS011;42754;0.000;0.000;2022-09-03T13:44:00;2.65;;;1.30;;
56868;SDS011;42754;0.000;0.000;2022-09-03T13:52:30;2.60;;;1.30;;
56868;SDS011;42754;0.000;0.000;2022-09-03T13:55:24;3.45;;;1.30;;
56868;SDS011;42754;0.000;0.000;2022-09-03T14:00:26;1.40;;;1.20;;
56868;SDS011;42754;0.000;0.000;2022-09-03T14:06:45;1.95;;;1.30;;
56868;SDS011;42754;0.000;0.000;2022-09-03T14:12:12;2.22;;;1.35;;
56868;SDS011;42754;0.000;0.000;2022-09-03T14:20:05;4.75;;;1.83;;
56868;SDS011;42754;0.000;0.000;2022-09-03T14:25:19;3.17;;;1.48;;
56868;SDS011;42754;0.000;0.000;2022-09-03T14:27:48;2.28;;;1.10;;
56868;SDS011;42754;0.000;0.000;2022-09-03T14:30:18;3.13;;;1.50;;
56868;SDS011;42754;0.000;0.000;2022-09-03T14:33:09;1.67;;;1.45;;
56868;SDS011;42754;0.000;0.000;2022-09-03T14:49:25;6.30;;;1.92;;
56868;SDS011;42754;0.000;0.000;2022-09-03T15:05:45;4.47;;;1.67;;
56868;SDS011;42754;0.000;0.000;2022-09-03T15:11:19;2.40;;;1.30;;
56868;SDS011;42754;0.000;0.000;2022-09-03T15:25:14;3.22;;;1.30;;
56868;SDS011;42754;0.000;0.000;2022-09-03T15:27:54;2.30;;;1.27;;
56868;SDS011;42754;0.000;0.000;2022-09-03T15:30:32;1.85;;;1.38;;
56868;SDS011;42754;0.000;0.000;2022-09-03T15:33:12;2.45;;;1.15;;
56868;SDS011;42754;0.000;0.000;2022-09-03T15:35:57;4.22;;;1.50;;
56868;SDS011;42754;0.000;0.000;2022-09-03T15:44:26;2.95;;;1.50;;
56868;SDS011;42754;0.000;0.000;2022-09-03T15:47:08;2.88;;;1.38;;
56868;SDS011;42754;0.000;0.000;2022-09-03T15:55:09;5.55;;;1.45;;
56868;SDS011;42754;0.000;0.000;2022-09-03T16:00:16;4.95;;;1.58;;
56868;SDS011;42754;0.000;0.000;2022-09-03T16:05:43;4.93;;;1.80;;
56868;SDS011;42754;0.000;0.000;2022-09-03T16:10:53;1.70;;;1.35;;
56868;SDS011;42754;0.000;0.000;2022-09-03T16:19:45;3.88;;;1.70;;
56868;SDS011;42754;0.000;0.000;2022-09-03T16:25:06;10.27;;;1.70;;
56868;SDS011;42754;0.000;0.000;2022-09-03T16:27:41;1.70;;;1.60;;
56868;SDS011;42754;0.000;0.000;2022-09-03T16:38:46;5.30;;;1.88;;
56868;SDS011;42754;0.000;0.000;2022-09-03T16:41:26;2.30;;;1.55;;
56868;SDS011;42754;0.000;0.000;2022-09-03T17:10:43;6.40;;;1.80;;
56868;SDS011;42754;0.000;0.000;2022-09-03T17:16:18;8.18;;;2.20;;
56868;SDS011;42754;0.000;0.000;2022-09-03T17:32:55;3.80;;;2.10;;
56868;SDS011;42754;0.000;0.000;2022-09-03T17:38:26;4.22;;;2.22;;
56868;SDS011;42754;0.000;0.000;2022-09-03T17:49:17;6.45;;;1.80;;
56868;SDS011;42754;0.000;0.000;2022-09-03T17:51:56;8.25;;;2.42;;
56868;SDS011;42754;0.000;0.000;2022-09-03T18:00:08;6.07;;;2.88;;
56868;SDS011;42754;0.000;0.000;2022-09-03T18:02:40;4.40;;;2.00;;
56868;SDS011;42754;0.000;0.000;2022-09-03T18:05:22;2.30;;;1.70;;
56868;SDS011;42754;0.000;0.000;2022-09-03T18:10:43;3.22;;;1.83;;
56868;SDS011;42754;0.000;0.000;2022-09-03T18:16:13;6.50;;;1.90;;
56868;SDS011;42754;0.000;0.000;2022-09-03T18:18:49;2.20;;;1.92;;
56868;SDS011;42754;0.000;0.000;2022-09-03T18:21:19;2.58;;;1.80;;
56868;SDS011;42754;0.000;0.000;2022-09-03T18:24:50;3.40;;;2.00;;
56868;SDS011;42754;0.000;0.000;2022-09-03T18:27:14;4.68;;;1.92;;
56868;SDS011;42754;0.000;0.000;2022-09-03T18:30:05;3.03;;;2.05;;
56868;SDS011;42754;0.000;0.000;2022-09-03T18:32:51;3.53;;;1.83;;
56868;SDS011;42754;0.000;0.000;2022-09-03T18:35:35;2.90;;;2.10;;
56868;SDS011;42754;0.000;0.000;2022-09-03T18:38:26;4.55;;;1.90;;
56868;SDS011;42754;0.000;0.000;2022-09-03T18:41:23;3.38;;;2.20;;
56868;SDS011;42754;0.000;0.000;2022-09-03T18:52:50;6.53;;;2.67;;
56868;SDS011;42754;0.000;0.000;2022-09-03T18:58:53;3.13;;;2.10;;
56868;SDS011;42754;0.000;0.000;2022-09-03T19:01:47;2.60;;;2.00;;
56868;SDS011;42754;0.000;0.000;2022-09-03T19:10:25;3.85;;;2.15;;
56868;SDS011;42754;0.000;0.000;2022-09-03T19:13:35;2.45;;;2.20;;
56868;SDS011;42754;0.000;0.000;2022-09-03T19:16:28;2.63;;;2.20;;
56868;SDS011;42754;0.000;0.000;2022-09-03T19:22:32;2.28;;;2.00;;
56868;SDS011;42754;0.000;0.000;2022-09-03T19:25:18;2.10;;;1.90;;
56868;SDS011;42754;0.000;0.000;2022-09-03T19:37:20;2.20;;;2.00;;
56868;SDS011;42754;0.000;0.000;2022-09-03T19:40:23;3.13;;;1.95;;
56868;SDS011;42754;0.000;0.000;2022-09-03T19:46:36;2.92;;;2.35;;
56868;SDS011;42754;0.000;0.000;2022-09-03T19:52:31;2.28;;;1.80;;
56868;SDS011;42754;0.000;0.000;2022-09-03T19:55:25;2.47;;;2.25;;
56868;SDS011;42754;0.000;0.000;2022-09-03T19:58:13;3.08;;;2.00;;
56868;SDS011;42754;0.000;0.000;2022-09-03T20:01:01;3.05;;;2.38;;
56868;SDS011;42754;0.000;0.000;2022-09-03T20:03:45;3.92;;;2.65;;
56868;SDS011;42754;0.000;0.000;2022-09-03T20:06:37;3.35;;;2.50;;
56868;SDS011;42754;0.000;0.000;2022-09-03T20:09:23;3.70;;;2.38;;
56868;SDS011;42754;0.000;0.000;2022-09-03T20:12:12;9.40;;;2.17;;
56868;SDS011;42754;0.000;0.000;2022-09-03T20:14:47;2.95;;;2.05;;
56868;SDS011;42754;0.000;0.000;2022-09-03T20:17:16;3.28;;;2.15;;
56868;SDS011;42754;0.000;0.000;2022-09-03T20:19:49;9.40;;;2.38;;
56868;SDS011;42754;0.000;0.000;2022-09-03T20:36:20;2.72;;;2.30;;
56868;SDS011;42754;0.000;0.000;2022-09-03T20:45:23;6.70;;;2.88;;
56868;SDS011;42754;0.000;0.000;2022-09-03T20:48:11;3.92;;;2.45;;
56868;SDS011;42754;0.000;0.000;2022-09-03T20:56:31;2.75;;;2.40;;
56868;SDS011;42754;0.000;0.000;2022-09-03T20:59:08;2.20;;;2.00;;
56868;SDS011;42754;0.000;0.000;2022-09-03T21:02:03;6.03;;;2.97;;
56868;SDS011;42754;0.000;0.000;2022-09-03T21:18:23;3.63;;;3.10;;
56868;SDS011;42754;0.000;0.000;2022-09-03T21:24:05;3.30;;;2.40;;
56868;SDS011;42754;0.000;0.000;2022-09-03T21:26:38;2.95;;;2.60;;
56868;SDS011;42754;0.000;0.000;2022-09-03T21:34:43;5.03;;;2.63;;
56868;SDS011;42754;0.000;0.000;2022-09-03T21:37:22;3.97;;;2.70;;
56868;SDS011;42754;0.000;0.000;2022-09-03T21:39:55;5.50;;;2.70;;
56868;SDS011;42754;0.000;0.000;2022-09-03T21:45:24;4.32;;;2.88;;
56868;SDS011;42754;0.000;0.000;2022-09-03T21:48:17;3.10;;;2.80;;
56868;SDS011;42754;0.000;0.000;2022-09-03T21:50:53;6.03;;;2.90;;
56868;SDS011;42754;0.000;0.000;2022-09-03T21:53:31;4.15;;;2.83;;
56868;SDS011;42754;0.000;0.000;2022-09-03T21:56:14;5.22;;;2.83;;
56868;SDS011;42754;0.000;0.000;2022-09-03T22:04:16;4.25;;;3.17;;
56868;SDS011;42754;0.000;0.000;2022-09-03T22:09:18;6.05;;;2.92;;
56868;SDS011;42754;0.000;0.000;2022-09-03T22:12:02;4.30;;;3.08;;
56868;SDS011;42754;0.000;0.000;2022-09-03T22:14:46;3.65;;;2.88;;
56868;SDS011;42754;0.000;0.000;2022-09-03T22:17:21;3.63;;;2.85;;
56868;SDS011;42754;0.000;0.000;2022-09-03T22:20:02;5.82;;;2.78;;
56868;SDS011;42754;0.000;0.000;2022-09-03T22:23:13;4.90;;;3.20;;
56868;SDS011;42754;0.000;0.000;2022-09-03T22:30:53;3.38;;;2.85;;
56868;SDS011;42754;0.000;0.000;2022-09-03T22:33:37;5.40;;;3.28;;
56868;SDS011;42754;0.000;0.000;2022-09-03T22:36:13;3.83;;;3.03;;
56868;SDS011;42754;0.000;0.000;2022-09-03T22:39:16;5.03;;;3.38;;
56868;SDS011;42754;0.000;0.000;2022-09-03T22:42:04;3.33;;;2.72;;
56868;SDS011;42754;0.000;0.000;2022-09-03T22:48:13;4.80;;;2.83;;
56868;SDS011;42754;0.000;0.000;2022-09-03T22:51:01;6.57;;;3.40;;
56868;SDS011;42754;0.000;0.000;2022-09-03T22:53:33;4.03;;;3.13;;
56868;SDS011;42754;0.000;0.000;2022-09-03T22:56:23;4.85;;;3.60;;